메인 페이지
METAR-TAF:

METAR-TAF

공항 :

퀴라소, 네덜란드령 안틸레스

위도: 12-12N, 경도: 068-58W, 고도: 9m

현재 날씨관측

예보는 7분 전, 05:00시(UTC)에 발표되었습니다.
동남동10kt
온도 26°C
습도 84%
기압 1014 hPa
시정 10km 이상
고도 1600ft 상공 구름 보통

METAR: TNCC 250500Z AUTO 11010KT 9999 SCT016 26/23 Q1014

시각: 01:07 (05:07 UTC)

예보

예보는 7 시간 22분 전, 21:45시(UTC)에 발표되었습니다.
예보 대상 시간: 25일 00시부터 25일 24시까지 (UTC)
12kt
시정 10km 이상
고도 1800ft 상공 구름 보통
확률 30% :
일시적
25일 14시부터 25일 20시까지 (UTC)
14kt, 순간 최대 풍속 24kt
고도 1500ft 상공 구름 많음

TAF: TNCC 242145Z 2500/2524 10012KT 9999 SCT018 PROB30 TEMPO 2514/2520 10014G24KT BKN015

4,000개 이상의 공항 관측 자료 및 예보 (METAR 및 TAF 보고).

지도상에서 검색 가능한 기상관측소가 노란 점과 빨간 점으로 표시되어 있습니다.

기상관측소 명을 보려면 표시 위로 마우스를 이동하세요.

날씨 관측과 예보를 보려면 클릭하세요.

지도 변경 : 확대하려면 엑스 표시가 있는 녹색 버튼, 축소하려면 빼기 표시가 있는 녹색 버튼, 다음 페이지의 지도를 보려면 녹색 화살표를 클릭하세요.


METAR-TAF: